createdAt,value
2023-03-24T00:01:18.506Z,13.59
2023-03-24T00:03:48.752Z,13.52
2023-03-24T00:06:18.892Z,13.61
2023-03-24T00:08:48.304Z,13.65
2023-03-24T00:11:18.763Z,13.87
2023-03-24T00:13:47.321Z,14.24
2023-03-24T00:16:17.115Z,14.19
2023-03-24T00:18:44.683Z,13.95
2023-03-24T00:21:13.616Z,13.83
2023-03-24T00:23:42.863Z,14.22
2023-03-24T00:26:16.862Z,14.19
2023-03-24T00:28:46.923Z,14.28
2023-03-24T00:31:16.008Z,14.19
2023-03-24T00:33:48.123Z,14.03
2023-03-24T00:36:16.894Z,14.21
2023-03-24T00:38:44.439Z,14.15
2023-03-24T00:41:11.961Z,13.99
2023-03-24T00:43:40.158Z,14.03
2023-03-24T00:46:11.153Z,14.00
2023-03-24T00:48:41.962Z,13.80
2023-03-24T00:51:11.123Z,13.84
2023-03-24T00:53:43.951Z,13.98
2023-03-24T00:56:11.787Z,13.87
2023-03-24T00:58:39.184Z,13.86
2023-03-24T01:01:07.279Z,13.87
2023-03-24T01:03:35.121Z,13.71
2023-03-24T01:06:04.577Z,14.11
2023-03-24T01:08:32.111Z,14.00
2023-03-24T01:11:01.208Z,13.76
2023-03-24T01:13:30.002Z,13.73
2023-03-24T01:15:57.760Z,13.67
2023-03-24T01:18:25.417Z,13.64
2023-03-24T01:20:53.875Z,13.71
2023-03-24T01:23:24.490Z,13.57
2023-03-24T01:25:52.538Z,13.54
2023-03-24T01:28:27.339Z,13.62
2023-03-24T01:30:54.960Z,13.64
2023-03-24T01:33:22.828Z,13.63
2023-03-24T01:35:50.549Z,13.55
2023-03-24T01:38:18.069Z,13.54
2023-03-24T01:40:47.377Z,13.50
2023-03-24T01:43:26.659Z,13.46
2023-03-24T01:46:23.626Z,13.40
2023-03-24T01:49:01.321Z,13.23
2023-03-24T01:51:41.929Z,13.15
2023-03-24T01:54:35.291Z,12.99
2023-03-24T01:57:07.640Z,12.98
2023-03-24T01:59:41.711Z,13.01
2023-03-24T02:02:22.251Z,12.90
2023-03-24T02:04:59.386Z,12.80
2023-03-24T02:08:03.801Z,12.79
2023-03-24T02:10:34.226Z,12.76
2023-03-24T02:13:01.854Z,12.87
2023-03-24T02:15:31.340Z,12.82
2023-03-24T02:18:09.301Z,12.72
2023-03-24T02:21:18.591Z,12.61
2023-03-24T02:23:55.760Z,12.30
2023-03-24T02:26:32.348Z,12.16
2023-03-24T02:29:21.120Z,12.27
2023-03-24T02:32:26.401Z,12.33
2023-03-24T02:35:12.292Z,12.36
2023-03-24T02:37:55.169Z,12.29
2023-03-24T02:41:01.337Z,12.28
2023-03-24T02:43:51.986Z,12.13
2023-03-24T02:46:33.232Z,12.06
2023-03-24T02:49:22.307Z,12.23
2023-03-24T02:52:01.232Z,12.17
2023-03-24T02:54:48.394Z,11.96
2023-03-24T02:57:18.842Z,11.76
2023-03-24T03:00:15.363Z,11.78
2023-03-24T03:03:31.141Z,11.87
2023-03-24T03:06:09.155Z,11.81
2023-03-24T03:08:38.687Z,11.76
2023-03-24T03:11:10.342Z,11.90
2023-03-24T03:13:43.192Z,11.91
2023-03-24T03:16:15.961Z,11.97
2023-03-24T03:18:50.168Z,11.82
2023-03-24T03:21:22.918Z,11.86
2023-03-24T03:24:06.189Z,11.88
2023-03-24T03:26:34.487Z,11.90
2023-03-24T03:29:11.754Z,12.00
2023-03-24T03:31:44.426Z,12.08
2023-03-24T03:34:22.420Z,12.08
2023-03-24T03:36:57.734Z,12.03
2023-03-24T03:39:31.441Z,11.93
2023-03-24T03:42:02.328Z,11.90
2023-03-24T03:44:31.268Z,11.90
2023-03-24T03:46:59.166Z,11.95
2023-03-24T03:49:40.501Z,11.86
2023-03-24T03:52:08.222Z,11.62
2023-03-24T03:54:37.895Z,11.54
2023-03-24T03:57:06.168Z,11.64
2023-03-24T03:59:42.505Z,11.55
2023-03-24T04:02:32.614Z,11.45
2023-03-24T04:05:26.141Z,11.59
2023-03-24T04:08:10.692Z,11.59
2023-03-24T04:10:58.310Z,11.62
2023-03-24T04:13:33.483Z,11.71
2023-03-24T04:16:48.919Z,11.61
2023-03-24T04:19:33.767Z,11.42
2023-03-24T04:22:26.977Z,11.32
2023-03-24T04:25:37.471Z,11.20
2023-03-24T04:28:14.935Z,11.15
2023-03-24T04:30:55.978Z,11.29
2023-03-24T04:33:35.278Z,11.43
2023-03-24T04:36:17.039Z,11.43
2023-03-24T04:39:05.162Z,11.37
2023-03-24T04:41:41.705Z,11.27
2023-03-24T04:44:17.681Z,11.37
2023-03-24T04:47:03.577Z,11.45
2023-03-24T04:49:31.279Z,11.39
2023-03-24T04:51:58.634Z,11.32
2023-03-24T04:54:28.324Z,11.37
2023-03-24T04:57:04.293Z,11.24
2023-03-24T04:59:40.639Z,11.27
2023-03-24T05:02:09.106Z,11.26
2023-03-24T05:05:02.837Z,11.21
2023-03-24T05:07:35.476Z,11.20
2023-03-24T05:10:07.769Z,11.29
2023-03-24T05:12:41.114Z,11.21
2023-03-24T05:15:28.720Z,11.04
2023-03-24T05:18:07.504Z,11.07
2023-03-24T05:20:34.872Z,11.14
2023-03-24T05:23:12.260Z,11.13
2023-03-24T05:25:40.960Z,11.17
2023-03-24T05:28:08.415Z,11.33
2023-03-24T05:30:36.303Z,11.47
2023-03-24T05:33:13.735Z,11.54
2023-03-24T05:35:41.237Z,11.51
2023-03-24T05:38:09.146Z,11.53
2023-03-24T05:40:37.089Z,11.49
2023-03-24T05:43:13.316Z,11.58
2023-03-24T05:45:46.676Z,11.67
2023-03-24T05:48:23.693Z,11.75
2023-03-24T05:51:04.022Z,11.76
2023-03-24T05:53:31.508Z,11.91
2023-03-24T05:56:16.946Z,11.97
2023-03-24T05:59:02.692Z,12.13
2023-03-24T06:01:58.629Z,12.18
2023-03-24T06:04:46.620Z,12.24
2023-03-24T06:07:17.053Z,12.32
2023-03-24T06:09:51.029Z,12.42
2023-03-24T06:12:19.199Z,12.66
2023-03-24T06:15:00.930Z,12.65
2023-03-24T06:17:30.271Z,12.65
2023-03-24T06:20:06.108Z,12.96
2023-03-24T06:23:02.834Z,13.37
2023-03-24T06:25:44.966Z,13.64
2023-03-24T06:28:22.752Z,14.00
2023-03-24T06:30:50.983Z,14.02
2023-03-24T06:33:25.920Z,13.70
2023-03-24T06:35:54.579Z,13.83
2023-03-24T06:38:22.292Z,14.41
2023-03-24T06:40:49.775Z,14.72
2023-03-24T06:43:17.420Z,14.80
2023-03-24T06:45:46.002Z,14.73
2023-03-24T06:48:24.136Z,14.62
2023-03-24T06:50:56.315Z,14.75
2023-03-24T06:53:23.761Z,14.69
2023-03-24T06:55:51.786Z,15.43
2023-03-24T06:58:21.590Z,15.63
2023-03-24T07:01:05.295Z,15.40
2023-03-24T07:03:35.065Z,16.26
2023-03-24T07:06:18.553Z,16.21
2023-03-24T07:08:50.694Z,17.63
2023-03-24T07:11:18.725Z,19.05
2023-03-24T07:13:52.950Z,19.54
2023-03-24T07:16:20.773Z,19.30
2023-03-24T07:18:54.816Z,19.76
2023-03-24T07:21:22.265Z,18.84
2023-03-24T07:23:51.475Z,18.44
2023-03-24T07:26:27.386Z,18.82
2023-03-24T07:28:59.134Z,18.60
2023-03-24T07:31:38.120Z,18.21
2023-03-24T07:34:09.173Z,18.47
2023-03-24T07:36:38.599Z,18.83
2023-03-24T07:39:09.507Z,19.23
2023-03-24T07:41:37.254Z,18.59
2023-03-24T07:44:12.398Z,17.79
2023-03-24T07:46:42.076Z,17.04
2023-03-24T07:49:18.844Z,16.49
2023-03-24T07:51:54.587Z,16.15
2023-03-24T07:54:30.101Z,15.83
2023-03-24T07:56:57.636Z,15.83
2023-03-24T07:59:26.797Z,15.54
2023-03-24T08:02:17.796Z,15.33
2023-03-24T08:04:54.252Z,15.19
2023-03-24T08:07:55.993Z,15.38
2023-03-24T08:10:29.509Z,15.13
2023-03-24T08:12:57.815Z,15.36
2023-03-24T08:15:26.483Z,15.09
2023-03-24T08:17:56.401Z,15.12
2023-03-24T08:20:27.187Z,15.14
2023-03-24T08:22:54.875Z,15.57
2023-03-24T08:25:25.702Z,15.43
2023-03-24T08:27:54.326Z,15.46
2023-03-24T08:30:26.406Z,15.63
2023-03-24T08:32:54.984Z,15.85
2023-03-24T08:35:25.919Z,15.95
2023-03-24T08:37:53.252Z,15.93
2023-03-24T08:40:24.266Z,15.89
2023-03-24T08:43:00.967Z,16.06
2023-03-24T08:45:31.524Z,16.18
2023-03-24T08:48:01.405Z,15.94
2023-03-24T08:50:32.800Z,15.72
2023-03-24T08:53:00.178Z,15.85
2023-03-24T08:55:27.904Z,15.93
2023-03-24T08:57:56.039Z,16.11
2023-03-24T09:00:24.683Z,16.39
2023-03-24T09:02:54.497Z,16.92
2023-03-24T09:05:33.310Z,17.60
2023-03-24T09:08:08.669Z,17.53
2023-03-24T09:10:36.360Z,18.29
2023-03-24T09:13:04.555Z,18.84
2023-03-24T09:15:32.370Z,18.70
2023-03-24T09:17:59.972Z,19.04
2023-03-24T09:20:27.434Z,19.16
2023-03-24T09:22:55.946Z,18.92
2023-03-24T09:25:23.644Z,19.21
2023-03-24T09:27:51.162Z,18.79
2023-03-24T09:30:19.061Z,18.55
2023-03-24T09:32:46.715Z,18.25
2023-03-24T09:35:15.143Z,18.25
2023-03-24T09:37:43.751Z,17.55
2023-03-24T09:40:20.727Z,17.55
2023-03-24T09:42:55.737Z,17.70
2023-03-24T09:45:26.404Z,17.56
2023-03-24T09:47:59.556Z,17.50
2023-03-24T09:50:36.989Z,17.34
2023-03-24T09:53:21.433Z,17.31
2023-03-24T09:55:49.575Z,17.53
2023-03-24T09:58:20.014Z,17.70
2023-03-24T10:00:47.689Z,17.52
2023-03-24T10:03:21.429Z,17.50
2023-03-24T10:06:13.019Z,17.31
2023-03-24T10:08:48.947Z,17.26
2023-03-24T10:11:37.753Z,17.54
2023-03-24T10:14:22.808Z,18.07
2023-03-24T10:17:06.776Z,18.02
2023-03-24T10:19:36.944Z,17.75
2023-03-24T10:22:27.893Z,18.27
2023-03-24T10:25:04.844Z,18.58
2023-03-24T10:27:39.195Z,18.85
2023-03-24T10:30:29.319Z,19.26
2023-03-24T10:32:56.869Z,19.21
2023-03-24T10:35:38.405Z,19.63
2023-03-24T10:38:32.007Z,19.51
2023-03-24T10:41:00.938Z,19.40
2023-03-24T10:43:29.750Z,19.89
2023-03-24T10:45:59.628Z,20.11
2023-03-24T10:48:51.083Z,20.33
2023-03-24T10:51:27.061Z,20.81
2023-03-24T10:54:22.810Z,20.23
2023-03-24T10:56:57.858Z,20.89
2023-03-24T10:59:33.233Z,21.46
2023-03-24T11:02:09.559Z,21.54
2023-03-24T11:04:40.646Z,22.20
2023-03-24T11:07:16.118Z,22.96
2023-03-24T11:09:45.773Z,22.63
2023-03-24T11:12:24.609Z,23.06
2023-03-24T11:14:57.562Z,22.71
2023-03-24T11:17:24.963Z,23.71
2023-03-24T11:19:54.284Z,23.83
2023-03-24T11:22:22.245Z,23.99
2023-03-24T11:24:52.755Z,23.27
2023-03-24T11:27:20.360Z,22.90
2023-03-24T11:29:53.948Z,22.73
2023-03-24T11:32:27.290Z,23.03
2023-03-24T11:35:07.548Z,22.83
2023-03-24T11:37:37.106Z,23.31
2023-03-24T11:40:13.762Z,23.89
2023-03-24T11:42:46.124Z,23.25
2023-03-24T11:45:46.023Z,23.21
2023-03-24T11:48:35.704Z,22.81
2023-03-24T11:51:05.667Z,22.41
2023-03-24T11:53:48.122Z,24.04
2023-03-24T11:56:30.283Z,23.72
2023-03-24T11:59:03.610Z,24.17
2023-03-24T12:01:39.350Z,24.77
2023-03-24T12:04:29.383Z,23.96
2023-03-24T12:07:18.005Z,24.65
2023-03-24T12:09:54.405Z,24.77
2023-03-24T12:12:36.542Z,23.73
2023-03-24T12:15:14.635Z,23.26
2023-03-24T12:18:05.876Z,23.39
2023-03-24T12:20:42.956Z,23.60
2023-03-24T12:23:24.988Z,24.29
2023-03-24T12:26:14.342Z,23.63
2023-03-24T12:28:47.783Z,23.63
2023-03-24T12:31:41.722Z,23.88
2023-03-24T12:34:33.740Z,24.45
2023-03-24T12:37:28.475Z,24.69
2023-03-24T12:40:19.388Z,24.07
2023-03-24T12:42:46.962Z,24.25
2023-03-24T12:45:38.774Z,23.05
2023-03-24T12:48:30.776Z,23.17
2023-03-24T12:51:29.245Z,23.64
2023-03-24T12:54:09.533Z,24.21
2023-03-24T12:56:53.688Z,23.46
2023-03-24T12:59:28.881Z,23.65
2023-03-24T13:02:08.624Z,23.68
2023-03-24T13:04:40.883Z,23.75
2023-03-24T13:07:11.966Z,24.59
2023-03-24T13:10:05.112Z,24.47
2023-03-24T13:13:06.218Z,24.19
2023-03-24T13:15:43.143Z,23.61
2023-03-24T13:18:18.142Z,23.86
2023-03-24T13:20:54.467Z,23.52
2023-03-24T13:23:34.267Z,23.66
2023-03-24T13:26:22.037Z,23.55
2023-03-24T13:29:08.177Z,23.62
2023-03-24T13:31:42.007Z,23.41
2023-03-24T13:34:26.069Z,23.87
2023-03-24T13:37:00.291Z,24.04
2023-03-24T13:39:29.524Z,24.27
2023-03-24T13:41:59.252Z,24.06
2023-03-24T13:44:40.486Z,24.04
2023-03-24T13:47:15.232Z,23.98
2023-03-24T13:49:53.872Z,24.08
2023-03-24T13:52:40.119Z,24.06
2023-03-24T13:55:21.506Z,24.15
2023-03-24T13:58:23.268Z,23.88
2023-03-24T14:01:09.153Z,23.22
2023-03-24T14:03:41.967Z,23.27
2023-03-24T14:06:17.277Z,23.10
2023-03-24T14:08:53.736Z,23.53
2023-03-24T14:11:41.456Z,23.99
2023-03-24T14:14:14.937Z,24.07
2023-03-24T14:17:02.286Z,24.19
2023-03-24T14:19:41.897Z,24.09
2023-03-24T14:22:21.565Z,23.59
2023-03-24T14:25:06.928Z,23.32
2023-03-24T14:27:42.876Z,23.23
2023-03-24T14:30:11.019Z,23.19
2023-03-24T14:33:00.191Z,23.06
2023-03-24T14:35:44.357Z,23.21
2023-03-24T14:38:15.453Z,23.10
2023-03-24T14:40:52.282Z,23.12
2023-03-24T14:43:27.326Z,22.80
2023-03-24T14:46:00.708Z,22.69
2023-03-24T14:48:33.812Z,22.68
2023-03-24T14:51:08.877Z,22.82
2023-03-24T14:53:38.564Z,22.44
2023-03-24T14:56:16.641Z,22.65
2023-03-24T14:58:48.755Z,23.00
2023-03-24T15:01:17.388Z,23.04
2023-03-24T15:04:06.864Z,23.03
2023-03-24T15:06:44.415Z,23.11
2023-03-24T15:09:11.853Z,23.04
2023-03-24T15:11:41.397Z,23.34
2023-03-24T15:14:24.476Z,23.17
2023-03-24T15:16:55.784Z,22.34
2023-03-24T15:19:26.659Z,22.03
2023-03-24T15:22:10.635Z,21.61
2023-03-24T15:24:41.240Z,21.36
2023-03-24T15:27:08.519Z,20.91
2023-03-24T15:29:41.500Z,20.57
2023-03-24T15:32:32.114Z,20.90
2023-03-24T15:35:05.793Z,20.68
2023-03-24T15:37:33.299Z,20.90
2023-03-24T15:40:12.912Z,20.79
2023-03-24T15:42:44.331Z,20.65
2023-03-24T15:45:26.153Z,20.34
2023-03-24T15:47:54.671Z,20.30
2023-03-24T15:50:39.740Z,20.24
2023-03-24T15:53:23.402Z,20.04
2023-03-24T15:56:22.046Z,20.12
2023-03-24T15:58:51.357Z,20.09
2023-03-24T16:01:27.371Z,20.21
2023-03-24T16:03:55.301Z,19.96
2023-03-24T16:06:36.833Z,20.00
2023-03-24T16:09:10.649Z,19.81
2023-03-24T16:11:38.140Z,19.70
2023-03-24T16:14:32.800Z,19.85
2023-03-24T16:17:03.054Z,19.78
2023-03-24T16:19:30.680Z,19.61
2023-03-24T16:21:58.128Z,19.62
2023-03-24T16:24:25.491Z,19.63
2023-03-24T16:26:52.850Z,19.52
2023-03-24T16:29:23.004Z,19.66
2023-03-24T16:31:52.587Z,19.53
2023-03-24T16:34:21.363Z,19.48
2023-03-24T16:36:51.126Z,19.48
2023-03-24T16:39:28.887Z,19.42
2023-03-24T16:41:56.681Z,19.48
2023-03-24T16:44:24.642Z,19.51
2023-03-24T16:46:54.388Z,19.48
2023-03-24T16:49:23.867Z,19.52
2023-03-24T16:51:52.837Z,19.60
2023-03-24T16:54:20.853Z,19.44
2023-03-24T16:56:48.488Z,19.39
2023-03-24T16:59:15.932Z,19.35
2023-03-24T17:01:47.965Z,19.29
2023-03-24T17:04:16.962Z,19.16
2023-03-24T17:06:50.824Z,19.12
2023-03-24T17:09:18.886Z,19.01
2023-03-24T17:11:52.325Z,19.09
2023-03-24T17:14:19.904Z,19.00
2023-03-24T17:16:49.226Z,18.96
2023-03-24T17:19:19.427Z,19.07
2023-03-24T17:21:56.964Z,18.95
2023-03-24T17:24:25.657Z,18.94
2023-03-24T17:26:53.100Z,18.95
2023-03-24T17:29:20.692Z,18.89
2023-03-24T17:31:48.162Z,18.87
2023-03-24T17:34:21.580Z,18.85
2023-03-24T17:36:51.395Z,18.82
2023-03-24T17:39:21.254Z,18.82
2023-03-24T17:41:48.862Z,18.83
2023-03-24T17:44:16.374Z,18.80
2023-03-24T17:46:43.808Z,18.78
2023-03-24T17:49:11.120Z,18.80
2023-03-24T17:51:38.622Z,18.77
2023-03-24T17:54:06.066Z,18.78
2023-03-24T17:56:33.443Z,18.73
2023-03-24T17:59:03.113Z,18.72
2023-03-24T18:01:31.014Z,18.72
2023-03-24T18:03:58.468Z,18.57
2023-03-24T18:06:27.439Z,18.66
2023-03-24T18:08:54.808Z,18.64
2023-03-24T18:11:22.305Z,18.67
2023-03-24T18:13:49.825Z,18.61
2023-03-24T18:16:21.882Z,18.63
2023-03-24T18:18:51.025Z,18.76
2023-03-24T18:21:19.654Z,18.61
2023-03-24T18:23:48.518Z,18.55
2023-03-24T18:26:17.874Z,18.54
2023-03-24T18:28:46.060Z,18.47
2023-03-24T18:31:20.146Z,18.48
2023-03-24T18:33:48.964Z,18.45
2023-03-24T18:36:21.286Z,18.45
2023-03-24T18:38:49.211Z,18.48
2023-03-24T18:41:18.445Z,18.41
2023-03-24T18:43:48.216Z,18.47
2023-03-24T18:46:16.641Z,18.37
2023-03-24T18:48:44.480Z,18.48
2023-03-24T18:51:12.310Z,18.37
2023-03-24T18:53:39.904Z,18.38
2023-03-24T18:56:08.423Z,18.40
2023-03-24T18:58:38.073Z,18.45
2023-03-24T19:01:15.108Z,18.45
2023-03-24T19:03:44.116Z,18.37
2023-03-24T19:06:13.706Z,18.24
2023-03-24T19:08:44.744Z,18.25
2023-03-24T19:11:13.801Z,18.15
2023-03-24T19:13:41.628Z,17.94
2023-03-24T19:16:10.548Z,18.05
2023-03-24T19:18:38.283Z,18.22
2023-03-24T19:21:06.837Z,18.17
2023-03-24T19:23:34.758Z,18.09
2023-03-24T19:26:02.711Z,17.96
2023-03-24T19:28:32.380Z,17.81
2023-03-24T19:31:05.680Z,18.13
2023-03-24T19:33:33.219Z,17.96
2023-03-24T19:36:00.649Z,17.84
2023-03-24T19:38:29.160Z,17.77
2023-03-24T19:40:56.650Z,17.85
2023-03-24T19:43:25.202Z,17.80
2023-03-24T19:45:54.442Z,17.64
2023-03-24T19:48:22.963Z,17.45
2023-03-24T19:50:53.145Z,17.49
2023-03-24T19:53:21.705Z,17.40
2023-03-24T19:55:50.455Z,17.46
2023-03-24T19:58:18.295Z,17.52
2023-03-24T20:00:45.846Z,17.42
2023-03-24T20:03:13.266Z,17.31
2023-03-24T20:05:40.807Z,17.25
2023-03-24T20:08:08.286Z,17.22
2023-03-24T20:10:37.131Z,17.23
2023-03-24T20:13:04.441Z,17.12
2023-03-24T20:15:31.813Z,17.09
2023-03-24T20:17:59.257Z,17.03
2023-03-24T20:20:26.552Z,17.01
2023-03-24T20:22:53.977Z,17.00
2023-03-24T20:25:22.361Z,16.96
2023-03-24T20:27:49.766Z,16.96
2023-03-24T20:30:18.796Z,17.04
2023-03-24T20:32:46.383Z,16.94
2023-03-24T20:35:13.878Z,16.95
2023-03-24T20:37:41.343Z,17.03
2023-03-24T20:40:12.047Z,17.09
2023-03-24T20:42:39.422Z,17.00
2023-03-24T20:45:07.767Z,16.97
2023-03-24T20:47:36.512Z,16.98
2023-03-24T20:50:05.982Z,16.92
2023-03-24T20:52:33.494Z,16.86
2023-03-24T20:55:01.608Z,16.90
2023-03-24T20:57:31.117Z,16.90
2023-03-24T20:59:58.459Z,16.89
2023-03-24T21:02:25.980Z,16.77
2023-03-24T21:04:53.402Z,16.86
2023-03-24T21:07:20.801Z,16.81
2023-03-24T21:09:48.145Z,16.86
2023-03-24T21:12:16.172Z,16.79
2023-03-24T21:14:46.709Z,16.78
2023-03-24T21:17:14.102Z,16.80
2023-03-24T21:19:46.812Z,16.87
2023-03-24T21:22:15.459Z,16.77
2023-03-24T21:24:42.851Z,16.63
2023-03-24T21:27:10.760Z,16.64
2023-03-24T21:29:38.256Z,16.63
2023-03-24T21:32:06.002Z,16.69
2023-03-24T21:34:33.293Z,16.75
2023-03-24T21:37:01.560Z,16.78
2023-03-24T21:39:29.140Z,16.73
2023-03-24T21:41:56.484Z,16.62
2023-03-24T21:44:23.785Z,16.74
2023-03-24T21:46:51.136Z,16.72
2023-03-24T21:49:19.193Z,16.64
2023-03-24T21:51:46.834Z,16.61
2023-03-24T21:54:15.069Z,16.63
2023-03-24T21:56:42.583Z,16.58
2023-03-24T21:59:11.245Z,16.53
2023-03-24T22:01:38.758Z,16.50
2023-03-24T22:04:08.682Z,16.61
2023-03-24T22:06:37.682Z,16.49
2023-03-24T22:09:06.904Z,16.65
2023-03-24T22:11:35.066Z,16.51
2023-03-24T22:14:03.654Z,16.57
2023-03-24T22:16:32.959Z,16.42
2023-03-24T22:19:01.495Z,16.37
2023-03-24T22:21:29.074Z,16.42
2023-03-24T22:23:56.699Z,16.57
2023-03-24T22:26:24.139Z,16.33
2023-03-24T22:28:51.429Z,16.36
2023-03-24T22:31:23.182Z,16.40
2023-03-24T22:33:50.687Z,16.31
2023-03-24T22:36:18.157Z,16.37
2023-03-24T22:38:45.492Z,16.48
2023-03-24T22:41:13.242Z,16.44
2023-03-24T22:43:41.667Z,16.32
2023-03-24T22:46:10.512Z,16.33
2023-03-24T22:48:39.162Z,16.40
2023-03-24T22:51:06.936Z,16.41
2023-03-24T22:53:34.399Z,16.38
2023-03-24T22:56:01.948Z,16.37
2023-03-24T22:58:29.354Z,16.25
2023-03-24T23:00:56.966Z,16.35
2023-03-24T23:03:24.375Z,16.43
2023-03-24T23:05:51.975Z,16.30
2023-03-24T23:08:19.625Z,16.42
2023-03-24T23:10:47.740Z,16.18
2023-03-24T23:13:17.118Z,16.36
2023-03-24T23:15:48.242Z,16.26
2023-03-24T23:18:16.744Z,16.21
2023-03-24T23:20:45.238Z,16.43
2023-03-24T23:23:13.586Z,16.14
2023-03-24T23:25:43.377Z,16.27
2023-03-24T23:28:12.603Z,16.12
2023-03-24T23:30:41.329Z,16.13
2023-03-24T23:33:09.051Z,16.11
2023-03-24T23:35:37.497Z,16.11
2023-03-24T23:38:06.677Z,15.98
2023-03-24T23:40:34.173Z,16.00
2023-03-24T23:43:01.939Z,16.11
2023-03-24T23:45:29.381Z,16.05
2023-03-24T23:47:56.988Z,16.04
2023-03-24T23:50:24.373Z,15.93
2023-03-24T23:52:51.789Z,15.93
2023-03-24T23:55:20.957Z,15.99
2023-03-24T23:57:51.828Z,16.08
